sensor_id;sensor_type;location;lat;lon;timestamp;P1;durP1;ratioP1;P2;durP2;ratioP2
20283;SDS011;10301;50.832;4.080;2022-12-18T00:00:46;56.53;;;23.60;;
20283;SDS011;10301;50.832;4.080;2022-12-18T00:03:15;58.07;;;25.80;;
20283;SDS011;10301;50.832;4.080;2022-12-18T00:05:47;54.20;;;25.57;;
20283;SDS011;10301;50.832;4.080;2022-12-18T00:08:13;54.60;;;27.20;;
20283;SDS011;10301;50.832;4.080;2022-12-18T00:10:39;61.93;;;30.07;;
20283;SDS011;10301;50.832;4.080;2022-12-18T00:13:05;77.23;;;35.43;;
20283;SDS011;10301;50.832;4.080;2022-12-18T00:15:32;63.03;;;30.27;;
20283;SDS011;10301;50.832;4.080;2022-12-18T00:18:02;59.93;;;26.40;;
20283;SDS011;10301;50.832;4.080;2022-12-18T00:20:27;48.77;;;26.27;;
20283;SDS011;10301;50.832;4.080;2022-12-18T00:22:53;50.60;;;25.80;;
20283;SDS011;10301;50.832;4.080;2022-12-18T00:25:19;55.23;;;26.00;;
20283;SDS011;10301;50.832;4.080;2022-12-18T00:27:45;51.67;;;23.60;;
20283;SDS011;10301;50.832;4.080;2022-12-18T00:30:11;51.80;;;23.57;;
20283;SDS011;10301;50.832;4.080;2022-12-18T00:32:37;51.53;;;24.70;;
20283;SDS011;10301;50.832;4.080;2022-12-18T00:35:03;51.37;;;24.10;;
20283;SDS011;10301;50.832;4.080;2022-12-18T00:37:30;47.67;;;24.03;;
20283;SDS011;10301;50.832;4.080;2022-12-18T00:39:55;48.40;;;23.97;;
20283;SDS011;10301;50.832;4.080;2022-12-18T00:42:21;48.73;;;25.13;;
20283;SDS011;10301;50.832;4.080;2022-12-18T00:45:05;56.87;;;25.07;;
20283;SDS011;10301;50.832;4.080;2022-12-18T00:47:31;52.53;;;24.87;;
20283;SDS011;10301;50.832;4.080;2022-12-18T00:49:57;52.83;;;24.53;;
20283;SDS011;10301;50.832;4.080;2022-12-18T00:52:22;56.80;;;26.97;;
20283;SDS011;10301;50.832;4.080;2022-12-18T00:54:48;49.97;;;24.60;;
20283;SDS011;10301;50.832;4.080;2022-12-18T00:57:14;48.77;;;23.90;;
20283;SDS011;10301;50.832;4.080;2022-12-18T00:59:39;51.27;;;22.70;;
20283;SDS011;10301;50.832;4.080;2022-12-18T01:02:05;48.80;;;21.87;;
20283;SDS011;10301;50.832;4.080;2022-12-18T01:04:31;40.97;;;22.00;;
20283;SDS011;10301;50.832;4.080;2022-12-18T01:06:57;45.17;;;22.03;;
20283;SDS011;10301;50.832;4.080;2022-12-18T01:09:23;56.20;;;23.40;;
20283;SDS011;10301;50.832;4.080;2022-12-18T01:11:48;45.83;;;22.47;;
20283;SDS011;10301;50.832;4.080;2022-12-18T01:14:14;52.07;;;25.03;;
20283;SDS011;10301;50.832;4.080;2022-12-18T01:16:40;57.77;;;25.00;;
20283;SDS011;10301;50.832;4.080;2022-12-18T01:19:05;45.93;;;22.13;;
20283;SDS011;10301;50.832;4.080;2022-12-18T01:21:31;45.00;;;22.60;;
20283;SDS011;10301;50.832;4.080;2022-12-18T01:23:57;42.90;;;22.00;;
20283;SDS011;10301;50.832;4.080;2022-12-18T01:26:23;50.00;;;23.63;;
20283;SDS011;10301;50.832;4.080;2022-12-18T01:28:50;50.30;;;22.93;;
20283;SDS011;10301;50.832;4.080;2022-12-18T01:31:20;37.70;;;21.00;;
20283;SDS011;10301;50.832;4.080;2022-12-18T01:33:47;44.70;;;20.97;;
20283;SDS011;10301;50.832;4.080;2022-12-18T01:36:16;39.63;;;18.50;;
20283;SDS011;10301;50.832;4.080;2022-12-18T01:38:44;38.37;;;18.43;;
20283;SDS011;10301;50.832;4.080;2022-12-18T01:41:10;40.63;;;18.53;;
20283;SDS011;10301;50.832;4.080;2022-12-18T01:43:43;39.77;;;19.03;;
20283;SDS011;10301;50.832;4.080;2022-12-18T01:46:20;37.23;;;18.40;;
20283;SDS011;10301;50.832;4.080;2022-12-18T01:48:48;36.93;;;19.27;;
20283;SDS011;10301;50.832;4.080;2022-12-18T01:51:15;36.07;;;19.23;;
20283;SDS011;10301;50.832;4.080;2022-12-18T01:53:41;36.73;;;18.00;;
20283;SDS011;10301;50.832;4.080;2022-12-18T01:56:08;40.20;;;19.57;;
20283;SDS011;10301;50.832;4.080;2022-12-18T02:01:25;38.30;;;19.70;;
20283;SDS011;10301;50.832;4.080;2022-12-18T02:03:51;35.17;;;19.33;;
20283;SDS011;10301;50.832;4.080;2022-12-18T02:06:23;38.37;;;19.23;;
20283;SDS011;10301;50.832;4.080;2022-12-18T02:09:02;39.10;;;20.00;;
20283;SDS011;10301;50.832;4.080;2022-12-18T02:11:43;38.40;;;18.67;;
20283;SDS011;10301;50.832;4.080;2022-12-18T02:14:44;41.03;;;18.90;;
20283;SDS011;10301;50.832;4.080;2022-12-18T02:17:40;42.00;;;20.70;;
20283;SDS011;10301;50.832;4.080;2022-12-18T02:28:32;34.50;;;18.47;;
20283;SDS011;10301;50.832;4.080;2022-12-18T02:31:02;39.20;;;18.73;;
20283;SDS011;10301;50.832;4.080;2022-12-18T02:33:31;39.90;;;19.27;;
20283;SDS011;10301;50.832;4.080;2022-12-18T02:35:58;39.30;;;18.43;;
20283;SDS011;10301;50.832;4.080;2022-12-18T02:38:26;39.70;;;19.23;;
20283;SDS011;10301;50.832;4.080;2022-12-18T02:40:53;34.83;;;17.50;;
20283;SDS011;10301;50.832;4.080;2022-12-18T02:43:20;32.20;;;17.47;;
20283;SDS011;10301;50.832;4.080;2022-12-18T02:45:50;33.55;;;16.20;;
20283;SDS011;10301;50.832;4.080;2022-12-18T02:48:34;30.53;;;16.20;;
20283;SDS011;10301;50.832;4.080;2022-12-18T02:51:03;32.73;;;16.10;;
20283;SDS011;10301;50.832;4.080;2022-12-18T02:53:43;33.07;;;17.87;;
20283;SDS011;10301;50.832;4.080;2022-12-18T02:56:20;33.83;;;17.63;;
20283;SDS011;10301;50.832;4.080;2022-12-18T03:04:26;35.63;;;17.43;;
20283;SDS011;10301;50.832;4.080;2022-12-18T03:06:57;33.43;;;17.50;;
20283;SDS011;10301;50.832;4.080;2022-12-18T03:09:34;38.33;;;17.60;;
20283;SDS011;10301;50.832;4.080;2022-12-18T03:12:15;36.37;;;18.40;;
20283;SDS011;10301;50.832;4.080;2022-12-18T03:14:54;35.77;;;16.70;;
20283;SDS011;10301;50.832;4.080;2022-12-18T03:17:25;37.13;;;16.73;;
20283;SDS011;10301;50.832;4.080;2022-12-18T03:19:53;32.13;;;15.97;;
20283;SDS011;10301;50.832;4.080;2022-12-18T03:22:23;41.13;;;18.50;;
20283;SDS011;10301;50.832;4.080;2022-12-18T03:24:51;38.77;;;19.47;;
20283;SDS011;10301;50.832;4.080;2022-12-18T03:27:20;37.37;;;19.53;;
20283;SDS011;10301;50.832;4.080;2022-12-18T03:29:49;40.43;;;20.10;;
20283;SDS011;10301;50.832;4.080;2022-12-18T03:33:38;37.43;;;19.63;;
20283;SDS011;10301;50.832;4.080;2022-12-18T03:35:57;39.47;;;21.07;;
20283;SDS011;10301;50.832;4.080;2022-12-18T03:38:23;39.73;;;19.53;;
20283;SDS011;10301;50.832;4.080;2022-12-18T03:46:06;37.40;;;18.20;;
20283;SDS011;10301;50.832;4.080;2022-12-18T03:48:44;36.23;;;16.67;;
20283;SDS011;10301;50.832;4.080;2022-12-18T03:56:20;37.70;;;17.90;;
20283;SDS011;10301;50.832;4.080;2022-12-18T03:58:49;36.47;;;18.20;;
20283;SDS011;10301;50.832;4.080;2022-12-18T04:01:17;34.70;;;17.17;;
20283;SDS011;10301;50.832;4.080;2022-12-18T04:03:46;33.20;;;17.43;;
20283;SDS011;10301;50.832;4.080;2022-12-18T04:06:14;33.87;;;17.63;;
20283;SDS011;10301;50.832;4.080;2022-12-18T04:08:41;31.30;;;17.43;;
20283;SDS011;10301;50.832;4.080;2022-12-18T04:11:07;38.63;;;17.10;;
20283;SDS011;10301;50.832;4.080;2022-12-18T04:13:34;32.97;;;15.93;;
20283;SDS011;10301;50.832;4.080;2022-12-18T04:16:01;31.83;;;16.53;;
20283;SDS011;10301;50.832;4.080;2022-12-18T04:18:27;31.70;;;15.43;;
20283;SDS011;10301;50.832;4.080;2022-12-18T04:20:53;29.77;;;15.20;;
20283;SDS011;10301;50.832;4.080;2022-12-18T04:23:19;27.43;;;13.93;;
20283;SDS011;10301;50.832;4.080;2022-12-18T04:25:45;34.40;;;16.30;;
20283;SDS011;10301;50.832;4.080;2022-12-18T04:28:12;31.57;;;15.43;;
20283;SDS011;10301;50.832;4.080;2022-12-18T04:30:37;30.17;;;15.37;;
20283;SDS011;10301;50.832;4.080;2022-12-18T04:33:03;29.93;;;15.50;;
20283;SDS011;10301;50.832;4.080;2022-12-18T04:35:28;31.33;;;16.03;;
20283;SDS011;10301;50.832;4.080;2022-12-18T04:37:55;35.23;;;15.53;;
20283;SDS011;10301;50.832;4.080;2022-12-18T04:40:20;32.67;;;15.50;;
20283;SDS011;10301;50.832;4.080;2022-12-18T04:42:46;34.20;;;15.90;;
20283;SDS011;10301;50.832;4.080;2022-12-18T04:45:11;35.67;;;16.00;;
20283;SDS011;10301;50.832;4.080;2022-12-18T04:47:37;36.77;;;15.50;;
20283;SDS011;10301;50.832;4.080;2022-12-18T04:50:03;34.17;;;16.40;;
20283;SDS011;10301;50.832;4.080;2022-12-18T04:52:29;33.10;;;16.17;;
20283;SDS011;10301;50.832;4.080;2022-12-18T04:54:54;36.70;;;16.33;;
20283;SDS011;10301;50.832;4.080;2022-12-18T04:57:20;30.63;;;15.97;;
20283;SDS011;10301;50.832;4.080;2022-12-18T04:59:46;30.10;;;15.37;;
20283;SDS011;10301;50.832;4.080;2022-12-18T05:02:11;36.43;;;17.13;;
20283;SDS011;10301;50.832;4.080;2022-12-18T05:04:37;29.43;;;15.47;;
20283;SDS011;10301;50.832;4.080;2022-12-18T05:07:02;32.23;;;15.37;;
20283;SDS011;10301;50.832;4.080;2022-12-18T05:09:29;29.10;;;14.50;;
20283;SDS011;10301;50.832;4.080;2022-12-18T05:11:54;29.17;;;15.13;;
20283;SDS011;10301;50.832;4.080;2022-12-18T05:14:20;30.20;;;14.90;;
20283;SDS011;10301;50.832;4.080;2022-12-18T05:16:46;26.87;;;13.13;;
20283;SDS011;10301;50.832;4.080;2022-12-18T05:19:11;27.67;;;12.63;;
20283;SDS011;10301;50.832;4.080;2022-12-18T05:21:37;27.37;;;12.53;;
20283;SDS011;10301;50.832;4.080;2022-12-18T05:24:03;21.17;;;11.60;;
20283;SDS011;10301;50.832;4.080;2022-12-18T05:26:29;22.77;;;11.83;;
20283;SDS011;10301;50.832;4.080;2022-12-18T05:28:55;21.40;;;11.67;;
20283;SDS011;10301;50.832;4.080;2022-12-18T05:31:21;20.33;;;11.37;;
20283;SDS011;10301;50.832;4.080;2022-12-18T05:33:47;22.00;;;10.93;;
20283;SDS011;10301;50.832;4.080;2022-12-18T05:36:14;20.27;;;10.03;;
20283;SDS011;10301;50.832;4.080;2022-12-18T05:38:40;24.83;;;12.23;;
20283;SDS011;10301;50.832;4.080;2022-12-18T05:41:06;22.83;;;11.43;;
20283;SDS011;10301;50.832;4.080;2022-12-18T05:43:34;27.93;;;14.57;;
20283;SDS011;10301;50.832;4.080;2022-12-18T05:46:05;28.60;;;14.20;;
20283;SDS011;10301;50.832;4.080;2022-12-18T05:48:38;25.23;;;12.17;;
20283;SDS011;10301;50.832;4.080;2022-12-18T05:51:08;26.13;;;11.33;;
20283;SDS011;10301;50.832;4.080;2022-12-18T05:53:39;20.90;;;10.77;;
20283;SDS011;10301;50.832;4.080;2022-12-18T05:56:06;24.77;;;11.90;;
20283;SDS011;10301;50.832;4.080;2022-12-18T05:58:37;19.83;;;10.47;;
20283;SDS011;10301;50.832;4.080;2022-12-18T06:01:06;17.83;;;9.60;;
20283;SDS011;10301;50.832;4.080;2022-12-18T06:03:34;21.13;;;9.87;;
20283;SDS011;10301;50.832;4.080;2022-12-18T06:06:00;20.60;;;10.13;;
20283;SDS011;10301;50.832;4.080;2022-12-18T06:08:25;22.93;;;11.63;;
20283;SDS011;10301;50.832;4.080;2022-12-18T06:10:51;22.30;;;10.77;;
20283;SDS011;10301;50.832;4.080;2022-12-18T06:13:18;22.77;;;11.57;;
20283;SDS011;10301;50.832;4.080;2022-12-18T06:15:44;21.17;;;10.17;;
20283;SDS011;10301;50.832;4.080;2022-12-18T06:18:09;20.53;;;9.90;;
20283;SDS011;10301;50.832;4.080;2022-12-18T06:20:35;20.60;;;9.40;;
20283;SDS011;10301;50.832;4.080;2022-12-18T06:23:02;24.27;;;10.97;;
20283;SDS011;10301;50.832;4.080;2022-12-18T06:25:28;22.87;;;11.33;;
20283;SDS011;10301;50.832;4.080;2022-12-18T06:27:54;18.47;;;10.47;;
20283;SDS011;10301;50.832;4.080;2022-12-18T06:30:19;23.03;;;11.27;;
20283;SDS011;10301;50.832;4.080;2022-12-18T06:32:45;20.03;;;10.33;;
20283;SDS011;10301;50.832;4.080;2022-12-18T06:35:11;21.70;;;11.43;;
20283;SDS011;10301;50.832;4.080;2022-12-18T06:37:36;22.60;;;11.47;;
20283;SDS011;10301;50.832;4.080;2022-12-18T06:40:02;25.50;;;13.10;;
20283;SDS011;10301;50.832;4.080;2022-12-18T06:42:28;29.63;;;13.60;;
20283;SDS011;10301;50.832;4.080;2022-12-18T06:44:54;23.50;;;11.97;;
20283;SDS011;10301;50.832;4.080;2022-12-18T06:47:19;19.43;;;9.97;;
20283;SDS011;10301;50.832;4.080;2022-12-18T06:49:45;19.70;;;10.13;;
20283;SDS011;10301;50.832;4.080;2022-12-18T06:52:11;19.33;;;9.73;;
20283;SDS011;10301;50.832;4.080;2022-12-18T06:54:36;20.53;;;10.67;;
20283;SDS011;10301;50.832;4.080;2022-12-18T06:57:02;15.70;;;9.47;;
20283;SDS011;10301;50.832;4.080;2022-12-18T06:59:28;21.57;;;10.77;;
20283;SDS011;10301;50.832;4.080;2022-12-18T07:01:53;19.77;;;10.43;;
20283;SDS011;10301;50.832;4.080;2022-12-18T07:04:19;20.77;;;11.00;;
20283;SDS011;10301;50.832;4.080;2022-12-18T07:06:44;18.70;;;9.33;;
20283;SDS011;10301;50.832;4.080;2022-12-18T07:09:10;19.60;;;9.53;;
20283;SDS011;10301;50.832;4.080;2022-12-18T07:11:36;17.23;;;8.43;;
20283;SDS011;10301;50.832;4.080;2022-12-18T07:14:01;18.93;;;8.80;;
20283;SDS011;10301;50.832;4.080;2022-12-18T07:16:27;16.33;;;8.13;;
20283;SDS011;10301;50.832;4.080;2022-12-18T07:18:54;15.97;;;9.40;;
20283;SDS011;10301;50.832;4.080;2022-12-18T07:21:20;15.73;;;8.03;;
20283;SDS011;10301;50.832;4.080;2022-12-18T07:23:47;17.50;;;8.37;;
20283;SDS011;10301;50.832;4.080;2022-12-18T07:26:13;17.63;;;8.37;;
20283;SDS011;10301;50.832;4.080;2022-12-18T07:28:40;20.47;;;9.20;;
20283;SDS011;10301;50.832;4.080;2022-12-18T07:31:08;16.93;;;8.93;;
20283;SDS011;10301;50.832;4.080;2022-12-18T07:33:36;20.13;;;9.07;;
20283;SDS011;10301;50.832;4.080;2022-12-18T07:36:02;15.73;;;7.77;;
20283;SDS011;10301;50.832;4.080;2022-12-18T07:38:30;17.97;;;8.83;;
20283;SDS011;10301;50.832;4.080;2022-12-18T07:41:03;17.73;;;8.63;;
20283;SDS011;10301;50.832;4.080;2022-12-18T07:43:30;15.63;;;8.43;;
20283;SDS011;10301;50.832;4.080;2022-12-18T07:45:56;16.43;;;7.93;;
20283;SDS011;10301;50.832;4.080;2022-12-18T07:48:21;19.40;;;8.93;;
20283;SDS011;10301;50.832;4.080;2022-12-18T07:50:47;17.70;;;8.63;;
20283;SDS011;10301;50.832;4.080;2022-12-18T07:53:13;20.03;;;8.83;;
20283;SDS011;10301;50.832;4.080;2022-12-18T07:55:39;15.77;;;8.80;;
20283;SDS011;10301;50.832;4.080;2022-12-18T07:58:06;16.70;;;8.80;;
20283;SDS011;10301;50.832;4.080;2022-12-18T08:00:32;22.33;;;9.63;;
20283;SDS011;10301;50.832;4.080;2022-12-18T08:02:58;16.83;;;8.37;;
20283;SDS011;10301;50.832;4.080;2022-12-18T08:05:24;16.27;;;8.47;;
20283;SDS011;10301;50.832;4.080;2022-12-18T08:07:50;17.33;;;9.27;;
20283;SDS011;10301;50.832;4.080;2022-12-18T08:10:16;17.60;;;9.07;;
20283;SDS011;10301;50.832;4.080;2022-12-18T08:12:42;16.70;;;8.40;;
20283;SDS011;10301;50.832;4.080;2022-12-18T08:15:07;18.43;;;8.70;;
20283;SDS011;10301;50.832;4.080;2022-12-18T08:17:33;16.43;;;9.10;;
20283;SDS011;10301;50.832;4.080;2022-12-18T08:19:59;19.30;;;9.40;;
20283;SDS011;10301;50.832;4.080;2022-12-18T08:22:25;18.50;;;9.43;;
20283;SDS011;10301;50.832;4.080;2022-12-18T08:24:50;19.87;;;9.93;;
20283;SDS011;10301;50.832;4.080;2022-12-18T08:27:16;18.60;;;9.73;;
20283;SDS011;10301;50.832;4.080;2022-12-18T08:29:42;23.00;;;9.87;;
20283;SDS011;10301;50.832;4.080;2022-12-18T08:32:07;18.37;;;9.47;;
20283;SDS011;10301;50.832;4.080;2022-12-18T08:34:33;18.90;;;9.63;;
20283;SDS011;10301;50.832;4.080;2022-12-18T08:37:00;20.23;;;10.77;;
20283;SDS011;10301;50.832;4.080;2022-12-18T08:39:26;17.27;;;9.67;;
20283;SDS011;10301;50.832;4.080;2022-12-18T08:41:51;15.93;;;9.27;;
20283;SDS011;10301;50.832;4.080;2022-12-18T08:44:35;19.17;;;9.57;;
20283;SDS011;10301;50.832;4.080;2022-12-18T08:47:04;23.80;;;10.57;;
20283;SDS011;10301;50.832;4.080;2022-12-18T08:49:31;18.03;;;10.17;;
20283;SDS011;10301;50.832;4.080;2022-12-18T08:51:57;21.13;;;10.70;;
20283;SDS011;10301;50.832;4.080;2022-12-18T08:54:23;20.03;;;10.57;;
20283;SDS011;10301;50.832;4.080;2022-12-18T08:56:49;17.03;;;9.87;;
20283;SDS011;10301;50.832;4.080;2022-12-18T08:59:16;19.03;;;9.50;;
20283;SDS011;10301;50.832;4.080;2022-12-18T09:01:42;17.47;;;9.10;;
20283;SDS011;10301;50.832;4.080;2022-12-18T09:04:09;18.67;;;10.40;;
20283;SDS011;10301;50.832;4.080;2022-12-18T09:06:35;21.00;;;11.17;;
20283;SDS011;10301;50.832;4.080;2022-12-18T09:09:01;20.97;;;11.27;;
20283;SDS011;10301;50.832;4.080;2022-12-18T09:11:27;22.27;;;9.93;;
20283;SDS011;10301;50.832;4.080;2022-12-18T09:13:54;19.30;;;9.80;;
20283;SDS011;10301;50.832;4.080;2022-12-18T09:16:20;17.27;;;9.40;;
20283;SDS011;10301;50.832;4.080;2022-12-18T09:18:47;18.43;;;10.80;;
20283;SDS011;10301;50.832;4.080;2022-12-18T09:21:14;20.20;;;10.67;;
20283;SDS011;10301;50.832;4.080;2022-12-18T09:23:41;20.40;;;11.00;;
20283;SDS011;10301;50.832;4.080;2022-12-18T09:26:07;23.60;;;11.77;;
20283;SDS011;10301;50.832;4.080;2022-12-18T09:28:32;20.10;;;10.93;;
20283;SDS011;10301;50.832;4.080;2022-12-18T09:30:59;20.37;;;11.60;;
20283;SDS011;10301;50.832;4.080;2022-12-18T09:33:30;23.87;;;11.63;;
20283;SDS011;10301;50.832;4.080;2022-12-18T09:35:56;17.07;;;10.03;;
20283;SDS011;10301;50.832;4.080;2022-12-18T09:38:21;17.80;;;10.43;;
20283;SDS011;10301;50.832;4.080;2022-12-18T09:40:49;19.40;;;10.80;;
20283;SDS011;10301;50.832;4.080;2022-12-18T09:43:29;20.17;;;10.50;;
20283;SDS011;10301;50.832;4.080;2022-12-18T09:46:08;22.70;;;10.83;;
20283;SDS011;10301;50.832;4.080;2022-12-18T09:48:41;17.53;;;9.73;;
20283;SDS011;10301;50.832;4.080;2022-12-18T09:51:18;21.67;;;10.80;;
20283;SDS011;10301;50.832;4.080;2022-12-18T09:54:35;19.37;;;10.57;;
20283;SDS011;10301;50.832;4.080;2022-12-18T09:56:58;19.33;;;10.47;;
20283;SDS011;10301;50.832;4.080;2022-12-18T09:59:26;18.47;;;9.73;;
20283;SDS011;10301;50.832;4.080;2022-12-18T10:01:58;19.90;;;10.20;;
20283;SDS011;10301;50.832;4.080;2022-12-18T10:04:24;17.80;;;10.20;;
20283;SDS011;10301;50.832;4.080;2022-12-18T10:06:53;19.73;;;9.83;;
20283;SDS011;10301;50.832;4.080;2022-12-18T10:09:29;18.63;;;10.13;;
20283;SDS011;10301;50.832;4.080;2022-12-18T10:12:14;18.03;;;9.43;;
20283;SDS011;10301;50.832;4.080;2022-12-18T10:17:49;20.30;;;9.70;;
20283;SDS011;10301;50.832;4.080;2022-12-18T10:20:38;20.03;;;10.17;;
20283;SDS011;10301;50.832;4.080;2022-12-18T10:25:41;16.10;;;8.93;;
20283;SDS011;10301;50.832;4.080;2022-12-18T10:28:11;18.57;;;10.33;;
20283;SDS011;10301;50.832;4.080;2022-12-18T10:30:39;20.43;;;10.93;;
20283;SDS011;10301;50.832;4.080;2022-12-18T10:33:09;20.30;;;10.83;;
20283;SDS011;10301;50.832;4.080;2022-12-18T10:35:37;21.67;;;11.37;;
20283;SDS011;10301;50.832;4.080;2022-12-18T10:40:32;21.43;;;10.67;;
20283;SDS011;10301;50.832;4.080;2022-12-18T10:43:12;19.20;;;11.10;;
20283;SDS011;10301;50.832;4.080;2022-12-18T10:45:39;19.07;;;10.60;;
20283;SDS011;10301;50.832;4.080;2022-12-18T10:48:19;19.03;;;11.30;;
20283;SDS011;10301;50.832;4.080;2022-12-18T10:50:46;21.23;;;11.20;;
20283;SDS011;10301;50.832;4.080;2022-12-18T10:53:16;21.77;;;11.80;;
20283;SDS011;10301;50.832;4.080;2022-12-18T10:56:03;21.03;;;11.00;;
20283;SDS011;10301;50.832;4.080;2022-12-18T10:58:32;24.10;;;11.73;;
20283;SDS011;10301;50.832;4.080;2022-12-18T11:01:04;22.83;;;10.87;;
20283;SDS011;10301;50.832;4.080;2022-12-18T11:03:45;23.67;;;11.20;;
20283;SDS011;10301;50.832;4.080;2022-12-18T11:06:21;21.37;;;11.10;;
20283;SDS011;10301;50.832;4.080;2022-12-18T11:08:59;26.00;;;13.50;;
20283;SDS011;10301;50.832;4.080;2022-12-18T11:11:25;21.80;;;13.07;;
20283;SDS011;10301;50.832;4.080;2022-12-18T11:14:04;24.80;;;14.00;;
20283;SDS011;10301;50.832;4.080;2022-12-18T11:16:36;29.73;;;14.97;;
20283;SDS011;10301;50.832;4.080;2022-12-18T11:22:23;21.43;;;13.43;;
20283;SDS011;10301;50.832;4.080;2022-12-18T11:24:59;27.70;;;14.90;;
20283;SDS011;10301;50.832;4.080;2022-12-18T11:27:37;24.57;;;14.23;;
20283;SDS011;10301;50.832;4.080;2022-12-18T11:33:09;22.77;;;12.47;;
20283;SDS011;10301;50.832;4.080;2022-12-18T11:35:50;23.83;;;12.43;;
20283;SDS011;10301;50.832;4.080;2022-12-18T11:38:24;22.47;;;11.07;;
20283;SDS011;10301;50.832;4.080;2022-12-18T11:40:54;20.13;;;11.53;;
20283;SDS011;10301;50.832;4.080;2022-12-18T11:46:07;22.93;;;12.30;;
20283;SDS011;10301;50.832;4.080;2022-12-18T11:48:45;21.73;;;11.23;;
20283;SDS011;10301;50.832;4.080;2022-12-18T11:51:37;22.40;;;10.67;;
20283;SDS011;10301;50.832;4.080;2022-12-18T11:54:13;21.93;;;11.43;;
20283;SDS011;10301;50.832;4.080;2022-12-18T11:56:51;23.40;;;12.30;;
20283;SDS011;10301;50.832;4.080;2022-12-18T12:02:21;24.03;;;12.43;;
20283;SDS011;10301;50.832;4.080;2022-12-18T12:20:18;24.40;;;13.10;;
20283;SDS011;10301;50.832;4.080;2022-12-18T12:22:56;23.90;;;12.77;;
20283;SDS011;10301;50.832;4.080;2022-12-18T12:25:33;26.60;;;12.90;;
20283;SDS011;10301;50.832;4.080;2022-12-18T12:34:22;26.10;;;13.87;;
20283;SDS011;10301;50.832;4.080;2022-12-18T12:39:42;29.03;;;14.40;;
20283;SDS011;10301;50.832;4.080;2022-12-18T12:42:30;27.30;;;14.00;;
20283;SDS011;10301;50.832;4.080;2022-12-18T12:45:26;26.30;;;13.53;;
20283;SDS011;10301;50.832;4.080;2022-12-18T12:48:13;27.50;;;13.83;;
20283;SDS011;10301;50.832;4.080;2022-12-18T12:50:46;27.43;;;15.07;;
20283;SDS011;10301;50.832;4.080;2022-12-18T12:53:35;29.77;;;14.60;;
20283;SDS011;10301;50.832;4.080;2022-12-18T12:56:01;27.70;;;14.73;;
20283;SDS011;10301;50.832;4.080;2022-12-18T13:01:02;28.40;;;15.33;;
20283;SDS011;10301;50.832;4.080;2022-12-18T13:04:21;31.03;;;15.27;;
20283;SDS011;10301;50.832;4.080;2022-12-18T13:07:06;25.80;;;13.93;;
20283;SDS011;10301;50.832;4.080;2022-12-18T13:10:11;30.50;;;15.43;;
20283;SDS011;10301;50.832;4.080;2022-12-18T13:12:53;28.83;;;15.07;;
20283;SDS011;10301;50.832;4.080;2022-12-18T13:15:47;32.10;;;15.40;;
20283;SDS011;10301;50.832;4.080;2022-12-18T13:18:27;33.90;;;15.90;;
20283;SDS011;10301;50.832;4.080;2022-12-18T13:25:51;30.33;;;15.90;;
20283;SDS011;10301;50.832;4.080;2022-12-18T13:36:44;30.77;;;15.50;;
20283;SDS011;10301;50.832;4.080;2022-12-18T13:41:42;31.63;;;15.43;;
20283;SDS011;10301;50.832;4.080;2022-12-18T13:44:31;32.97;;;16.40;;
20283;SDS011;10301;50.832;4.080;2022-12-18T13:47:05;29.67;;;15.63;;
20283;SDS011;10301;50.832;4.080;2022-12-18T13:49:57;32.30;;;16.50;;
20283;SDS011;10301;50.832;4.080;2022-12-18T13:52:33;31.63;;;16.33;;
20283;SDS011;10301;50.832;4.080;2022-12-18T13:55:02;30.97;;;15.47;;
20283;SDS011;10301;50.832;4.080;2022-12-18T13:57:33;32.70;;;16.93;;
20283;SDS011;10301;50.832;4.080;2022-12-18T14:00:25;29.73;;;15.97;;
20283;SDS011;10301;50.832;4.080;2022-12-18T14:02:54;35.20;;;15.90;;
20283;SDS011;10301;50.832;4.080;2022-12-18T14:05:30;34.10;;;15.87;;
20283;SDS011;10301;50.832;4.080;2022-12-18T14:08:02;29.30;;;15.70;;
20283;SDS011;10301;50.832;4.080;2022-12-18T14:10:31;36.50;;;16.93;;
20283;SDS011;10301;50.832;4.080;2022-12-18T14:12:57;35.87;;;17.43;;
20283;SDS011;10301;50.832;4.080;2022-12-18T14:20:47;34.20;;;14.33;;
20283;SDS011;10301;50.832;4.080;2022-12-18T14:23:25;33.60;;;15.60;;
20283;SDS011;10301;50.832;4.080;2022-12-18T14:26:01;30.10;;;15.30;;
20283;SDS011;10301;50.832;4.080;2022-12-18T14:28:29;40.57;;;18.33;;
20283;SDS011;10301;50.832;4.080;2022-12-18T14:30:55;38.73;;;18.00;;
20283;SDS011;10301;50.832;4.080;2022-12-18T14:33:25;32.67;;;15.50;;
20283;SDS011;10301;50.832;4.080;2022-12-18T14:36:02;36.13;;;17.03;;
20283;SDS011;10301;50.832;4.080;2022-12-18T14:38:36;36.43;;;17.60;;
20283;SDS011;10301;50.832;4.080;2022-12-18T14:43:37;35.40;;;16.37;;
20283;SDS011;10301;50.832;4.080;2022-12-18T14:46:05;36.80;;;16.03;;
20283;SDS011;10301;50.832;4.080;2022-12-18T14:48:50;37.87;;;17.17;;
20283;SDS011;10301;50.832;4.080;2022-12-18T14:51:20;33.27;;;15.27;;
20283;SDS011;10301;50.832;4.080;2022-12-18T14:53:57;33.73;;;17.03;;
20283;SDS011;10301;50.832;4.080;2022-12-18T14:56:32;38.30;;;18.03;;
20283;SDS011;10301;50.832;4.080;2022-12-18T14:59:00;34.93;;;17.20;;
20283;SDS011;10301;50.832;4.080;2022-12-18T15:03:54;37.90;;;17.53;;
20283;SDS011;10301;50.832;4.080;2022-12-18T15:06:32;37.30;;;18.60;;
20283;SDS011;10301;50.832;4.080;2022-12-18T15:09:00;35.73;;;17.07;;
20283;SDS011;10301;50.832;4.080;2022-12-18T15:11:32;36.50;;;18.43;;
20283;SDS011;10301;50.832;4.080;2022-12-18T15:17:18;38.03;;;16.93;;
20283;SDS011;10301;50.832;4.080;2022-12-18T15:19:46;34.30;;;17.57;;
20283;SDS011;10301;50.832;4.080;2022-12-18T15:24:50;37.53;;;17.23;;
20283;SDS011;10301;50.832;4.080;2022-12-18T15:27:23;39.13;;;17.70;;
20283;SDS011;10301;50.832;4.080;2022-12-18T15:30:01;33.93;;;16.17;;
20283;SDS011;10301;50.832;4.080;2022-12-18T15:32:30;34.10;;;17.23;;
20283;SDS011;10301;50.832;4.080;2022-12-18T15:37:47;34.17;;;16.80;;
20283;SDS011;10301;50.832;4.080;2022-12-18T15:40:14;38.23;;;18.97;;
20283;SDS011;10301;50.832;4.080;2022-12-18T15:42:42;34.20;;;16.37;;
20283;SDS011;10301;50.832;4.080;2022-12-18T15:45:27;33.97;;;15.83;;
20283;SDS011;10301;50.832;4.080;2022-12-18T15:47:53;35.17;;;16.60;;
20283;SDS011;10301;50.832;4.080;2022-12-18T15:50:19;41.20;;;17.57;;
20283;SDS011;10301;50.832;4.080;2022-12-18T15:52:45;33.50;;;15.93;;
20283;SDS011;10301;50.832;4.080;2022-12-18T15:55:15;32.40;;;14.60;;
20283;SDS011;10301;50.832;4.080;2022-12-18T15:58:01;30.17;;;14.50;;
20283;SDS011;10301;50.832;4.080;2022-12-18T16:00:28;34.73;;;16.47;;
20283;SDS011;10301;50.832;4.080;2022-12-18T16:02:53;39.50;;;17.33;;
20283;SDS011;10301;50.832;4.080;2022-12-18T16:05:19;35.40;;;16.63;;
20283;SDS011;10301;50.832;4.080;2022-12-18T16:07:46;35.70;;;15.90;;
20283;SDS011;10301;50.832;4.080;2022-12-18T16:10:13;33.23;;;16.47;;
20283;SDS011;10301;50.832;4.080;2022-12-18T16:12:38;33.33;;;15.70;;
20283;SDS011;10301;50.832;4.080;2022-12-18T16:15:05;33.43;;;15.30;;
20283;SDS011;10301;50.832;4.080;2022-12-18T16:17:31;34.20;;;15.73;;
20283;SDS011;10301;50.832;4.080;2022-12-18T16:19:57;30.77;;;15.90;;
20283;SDS011;10301;50.832;4.080;2022-12-18T16:22:24;30.07;;;14.50;;
20283;SDS011;10301;50.832;4.080;2022-12-18T16:24:51;32.70;;;15.10;;
20283;SDS011;10301;50.832;4.080;2022-12-18T16:27:18;33.50;;;16.57;;
20283;SDS011;10301;50.832;4.080;2022-12-18T16:29:44;30.50;;;14.80;;